Terminal Aerodrome Forecast
Issued by NWS Grand Forks, ND

Home | Current Version | Previous Version | Text Only | Print | Product List | Glossary Off
Versions: 1 2 3 4 5 6 7 8 9 10 11 12

091
FTUS43 KFGF 281720
TAFFAR
TAF
KFAR 281720Z 2818/2918 06008G18KT P6SM BKN200
     FM290000 07008KT P6SM BKN250
     FM290600 VRB04KT P6SM SCT150=

USA.gov is the U.S. government's official web portal to all federal, state and local government web resources and services.